Time;durP1;ratioP1;P1;durP2;ratioP2;P2;SDS_P1;SDS_P2;PMS_P1;PMS_P2;Temp;Humidity;BMP_temperature;BMP_pressure;BME280_temperature;BME280_humidity;BME280_pressure;Samples;Min_cycle;Max_cycle;Signal;HPM_P1;HPM_P2
2023/08/02 00:00:55;;;;;;;2.60;1.40;;;15.90;99.90;;;;;;5091836;28;20495;-70
2023/08/02 00:03:22;;;;;;;7.30;2.00;;;16.00;99.90;;;;;;5091877;28;20450;-70
2023/08/02 00:05:53;;;;;;;1.60;1.50;;;16.00;99.90;;;;;;5091697;28;20464;-70
2023/08/02 00:08:20;;;;;;;2.13;1.80;;;16.00;99.90;;;;;;5091365;28;20470;-70
2023/08/02 00:10:46;;;;;;;1.97;1.60;;;16.00;99.90;;;;;;5091657;28;20463;-70
2023/08/02 00:13:13;;;;;;;3.27;1.90;;;16.00;99.90;;;;;;5091768;28;20452;-70
2023/08/02 00:15:40;;;;;;;1.83;1.50;;;16.00;99.90;;;;;;5091335;28;20453;-70
2023/08/02 00:18:09;;;;;;;1.37;1.27;;;16.00;99.90;;;;;;5091302;28;20476;-70
2023/08/02 00:20:37;;;;;;;1.83;1.47;;;16.00;99.90;;;;;;5090778;28;20844;-70
2023/08/02 00:23:03;;;;;;;2.27;1.70;;;16.00;99.90;;;;;;5091581;28;20836;-70
2023/08/02 00:25:30;;;;;;;2.07;1.30;;;16.00;99.90;;;;;;5091192;28;20823;-70
2023/08/02 00:27:57;;;;;;;2.30;1.50;;;16.00;99.90;;;;;;5090828;28;20999;-70
2023/08/02 00:30:24;;;;;;;1.60;1.50;;;16.00;99.90;;;;;;5091171;28;20450;-70
2023/08/02 00:32:51;;;;;;;1.70;1.37;;;16.00;99.90;;;;;;5090977;28;20540;-70
2023/08/02 00:35:19;;;;;;;2.67;1.83;;;16.00;99.90;;;;;;5090904;28;20478;-70
2023/08/02 00:37:46;;;;;;;1.30;1.10;;;16.00;99.90;;;;;;5090780;28;20478;-70
2023/08/02 00:40:13;;;;;;;1.57;1.47;;;16.10;99.90;;;;;;5091197;28;20457;-70
2023/08/02 00:42:39;;;;;;;1.70;1.50;;;16.10;99.90;;;;;;5090822;28;20464;-70
2023/08/02 00:45:07;;;;;;;2.00;1.53;;;16.00;99.90;;;;;;5091133;28;20804;-70
2023/08/02 00:47:35;;;;;;;2.60;1.77;;;16.00;99.90;;;;;;5090494;28;20830;-70
2023/08/02 00:50:03;;;;;;;2.57;2.37;;;16.00;99.90;;;;;;5091032;28;20457;-70
2023/08/02 00:52:31;;;;;;;2.10;1.57;;;16.00;99.90;;;;;;5090866;28;20476;-70
2023/08/02 00:54:58;;;;;;;1.73;1.40;;;16.00;99.90;;;;;;5090519;28;20488;-70
2023/08/02 00:57:25;;;;;;;2.33;1.80;;;15.90;99.90;;;;;;5089986;28;20807;-70
2023/08/02 00:59:51;;;;;;;2.10;1.60;;;15.90;99.90;;;;;;5090595;28;20466;-70
2023/08/02 01:02:18;;;;;;;1.90;1.60;;;15.90;99.90;;;;;;5090715;28;20456;-70
2023/08/02 01:04:46;;;;;;;1.90;1.70;;;15.90;99.90;;;;;;5090356;28;20461;-70
2023/08/02 01:07:20;;;;;;;1.80;1.43;;;15.90;99.90;;;;;;5090147;28;20848;-70
2023/08/02 01:09:53;;;;;;;2.50;2.13;;;15.80;99.90;;;;;;5090546;28;20458;-70
2023/08/02 01:12:22;;;;;;;2.03;1.40;;;15.80;99.90;;;;;;5090481;28;20454;-70
2023/08/02 01:14:53;;;;;;;2.10;1.60;;;15.80;99.90;;;;;;5090175;28;20475;-70
2023/08/02 01:17:21;;;;;;;2.63;1.93;;;15.80;99.90;;;;;;5089822;28;20839;-70
2023/08/02 01:19:48;;;;;;;1.60;1.43;;;15.70;99.90;;;;;;5090052;28;20454;-70
2023/08/02 01:22:16;;;;;;;1.67;1.43;;;15.60;99.90;;;;;;5090463;28;20456;-70
2023/08/02 01:24:43;;;;;;;1.73;1.53;;;15.60;99.90;;;;;;5090196;28;20450;-70
2023/08/02 01:27:14;;;;;;;1.80;1.53;;;15.60;99.90;;;;;;5090028;28;20461;-70
2023/08/02 01:29:46;;;;;;;2.63;1.60;;;15.60;99.90;;;;;;5089977;28;20487;-70
2023/08/02 01:32:13;;;;;;;1.90;1.70;;;15.50;99.90;;;;;;5089657;28;20467;-70
2023/08/02 01:34:41;;;;;;;1.87;1.50;;;15.50;99.90;;;;;;5089821;28;21254;-71
2023/08/02 01:37:07;;;;;;;1.70;1.57;;;15.50;99.90;;;;;;5089763;28;20460;-71
2023/08/02 01:39:35;;;;;;;2.07;1.40;;;15.40;99.90;;;;;;5089908;28;20991;-71
2023/08/02 01:42:02;;;;;;;1.90;1.70;;;15.40;99.90;;;;;;5090110;28;20488;-70
2023/08/02 01:44:29;;;;;;;2.17;1.50;;;15.40;99.90;;;;;;5089975;28;20451;-71
2023/08/02 01:46:56;;;;;;;1.77;1.50;;;15.40;99.90;;;;;;5089506;28;20460;-70
2023/08/02 01:49:22;;;;;;;2.30;1.70;;;15.40;99.90;;;;;;5089852;28;20477;-70
2023/08/02 01:51:49;;;;;;;1.73;1.53;;;15.30;99.90;;;;;;5089746;28;20462;-70
2023/08/02 01:54:16;;;;;;;3.23;1.43;;;15.20;99.90;;;;;;5089851;28;20483;-70
2023/08/02 01:56:44;;;;;;;1.60;1.50;;;15.20;99.90;;;;;;5089598;28;20471;-70
2023/08/02 01:59:12;;;;;;;1.50;1.40;;;15.20;99.90;;;;;;5089553;28;20484;-70
2023/08/02 02:01:38;;;;;;;2.40;1.70;;;15.20;99.90;;;;;;5089927;28;20455;-70
2023/08/02 02:04:05;;;;;;;1.70;1.33;;;15.30;99.90;;;;;;5089779;28;20446;-70
2023/08/02 02:06:32;;;;;;;2.70;1.80;;;15.30;99.90;;;;;;5089620;28;20456;-70
2023/08/02 02:08:58;;;;;;;2.20;1.77;;;15.30;99.90;;;;;;5089412;28;20476;-70
2023/08/02 02:11:25;;;;;;;2.03;1.77;;;15.30;99.90;;;;;;5089859;28;20476;-70
2023/08/02 02:13:53;;;;;;;1.90;1.40;;;15.30;99.90;;;;;;5089707;28;20457;-70
2023/08/02 02:16:20;;;;;;;2.03;1.50;;;15.30;99.90;;;;;;5089542;28;20455;-70
2023/08/02 02:18:46;;;;;;;2.70;2.00;;;15.30;99.90;;;;;;5088978;28;20480;-70
2023/08/02 02:21:13;;;;;;;2.00;1.63;;;15.30;99.90;;;;;;5089677;28;20457;-70
2023/08/02 02:23:40;;;;;;;1.57;1.47;;;15.30;99.90;;;;;;5089682;28;20832;-70
2023/08/02 02:26:07;;;;;;;1.93;1.67;;;15.30;99.90;;;;;;5089442;28;20448;-70
2023/08/02 02:28:33;;;;;;;1.87;1.67;;;15.30;99.90;;;;;;5089047;28;20476;-70
2023/08/02 02:31:01;;;;;;;1.90;1.43;;;15.30;99.90;;;;;;5089567;28;20463;-70
2023/08/02 02:33:28;;;;;;;1.73;1.40;;;15.30;99.90;;;;;;5089432;28;20460;-70
2023/08/02 02:35:55;;;;;;;1.50;1.40;;;15.30;99.90;;;;;;5089245;28;20484;-70
2023/08/02 02:38:21;;;;;;;1.60;1.50;;;15.30;99.90;;;;;;5088975;28;20993;-70
2023/08/02 02:40:48;;;;;;;1.73;1.30;;;15.30;99.90;;;;;;5089813;28;20464;-70
2023/08/02 02:43:15;;;;;;;3.57;1.53;;;15.30;99.90;;;;;;5091110;28;20460;-70
2023/08/02 02:45:41;;;;;;;3.87;1.73;;;15.30;99.90;;;;;;5093037;28;20452;-70
2023/08/02 02:48:09;;;;;;;4.33;1.80;;;15.30;99.90;;;;;;5092626;28;20478;-70
2023/08/02 02:50:36;;;;;;;1.57;1.47;;;15.30;99.90;;;;;;5092896;28;20463;-70
2023/08/02 02:53:03;;;;;;;2.90;1.90;;;15.30;99.90;;;;;;5093008;28;20846;-70
2023/08/02 02:55:29;;;;;;;4.57;2.23;;;15.30;99.90;;;;;;5092615;28;20475;-70
2023/08/02 02:57:56;;;;;;;2.67;1.67;;;15.30;99.90;;;;;;5092746;28;20483;-70
2023/08/02 03:00:23;;;;;;;2.03;1.67;;;15.40;99.90;;;;;;5092630;28;20458;-70
2023/08/02 03:02:49;;;;;;;3.87;1.50;;;15.40;99.90;;;;;;5092851;28;20455;-70
2023/08/02 03:05:17;;;;;;;3.23;2.30;;;15.40;99.90;;;;;;5092726;28;20449;-70
2023/08/02 03:07:46;;;;;;;1.70;1.60;;;15.40;99.90;;;;;;5092603;28;20492;-70
2023/08/02 03:10:12;;;;;;;251.57;19.90;;;15.40;99.90;;;;;;5092883;28;20456;-70
2023/08/02 03:12:39;;;;;;;6.23;2.00;;;15.40;99.90;;;;;;5092817;28;20452;-70
2023/08/02 03:15:07;;;;;;;1.83;1.70;;;15.40;99.90;;;;;;5092365;28;20999;-70
2023/08/02 03:17:34;;;;;;;1.80;1.30;;;15.40;99.90;;;;;;5091980;28;20476;-70
2023/08/02 03:20:01;;;;;;;3.37;1.97;;;15.40;99.90;;;;;;5092476;28;20490;-70
2023/08/02 03:22:29;;;;;;;1.93;1.50;;;15.40;99.90;;;;;;5092490;28;21018;-70
2023/08/02 03:24:56;;;;;;;1.70;1.60;;;15.40;99.90;;;;;;5092366;28;20483;-70
2023/08/02 03:27:22;;;;;;;1.67;1.50;;;15.50;99.90;;;;;;5091623;28;20456;-70
2023/08/02 03:29:49;;;;;;;6.73;1.60;;;15.50;99.90;;;;;;5091365;28;20463;-70
2023/08/02 03:32:16;;;;;;;1.90;1.70;;;15.50;99.90;;;;;;5091535;28;20459;-69
2023/08/02 03:34:43;;;;;;;1.30;1.20;;;15.50;99.90;;;;;;5090821;28;20488;-70
2023/08/02 03:37:09;;;;;;;2.30;1.40;;;15.50;99.90;;;;;;5091293;28;20537;-69
2023/08/02 03:39:37;;;;;;;2.23;1.93;;;15.60;99.90;;;;;;5091275;28;20488;-69
2023/08/02 03:42:04;;;;;;;3.53;1.80;;;15.50;99.90;;;;;;5091142;28;20461;-70
2023/08/02 03:44:31;;;;;;;4.97;1.80;;;15.60;99.90;;;;;;5091277;28;20465;-70
2023/08/02 03:46:58;;;;;;;2.07;1.40;;;15.60;99.90;;;;;;5090601;28;20465;-69
2023/08/02 03:49:24;;;;;;;2.70;1.47;;;15.60;99.90;;;;;;5091171;28;20471;-70
2023/08/02 03:51:51;;;;;;;1.97;1.77;;;15.60;99.90;;;;;;5091538;28;20461;-69
2023/08/02 03:54:18;;;;;;;1.90;1.60;;;15.60;99.90;;;;;;5090435;28;20470;-70
2023/08/02 03:56:46;;;;;;;1.30;1.20;;;15.60;99.90;;;;;;5090553;28;20466;-70
2023/08/02 03:59:13;;;;;;;1.87;1.67;;;15.70;99.90;;;;;;5090757;28;20507;-70
2023/08/02 04:01:39;;;;;;;2.57;1.80;;;15.70;99.90;;;;;;5091139;28;20452;-70
2023/08/02 04:04:06;;;;;;;2.03;1.83;;;15.70;99.90;;;;;;5091029;28;20965;-70
2023/08/02 04:06:33;;;;;;;1.73;1.40;;;15.70;99.90;;;;;;5090644;28;20453;-70
2023/08/02 04:08:59;;;;;;;2.57;1.70;;;15.70;99.90;;;;;;5090556;28;20470;-70
2023/08/02 04:11:26;;;;;;;1.90;1.70;;;15.70;99.90;;;;;;5090743;28;20547;-69
2023/08/02 04:13:54;;;;;;;2.23;1.70;;;15.70;99.90;;;;;;5091215;28;20455;-69
2023/08/02 04:16:21;;;;;;;2.07;1.60;;;15.70;99.90;;;;;;5089506;28;20839;-69
2023/08/02 04:18:48;;;;;;;1.90;1.70;;;15.70;99.90;;;;;;5090562;28;20472;-69
2023/08/02 04:21:19;;;;;;;1.67;1.57;;;15.70;99.90;;;;;;5090705;28;20463;-69
2023/08/02 04:23:46;;;;;;;3.37;1.97;;;15.70;99.90;;;;;;5090772;28;20502;-70
2023/08/02 04:26:12;;;;;;;1.73;1.60;;;15.70;99.90;;;;;;5090996;28;20452;-70
2023/08/02 04:28:39;;;;;;;1.73;1.50;;;15.70;99.90;;;;;;5090303;28;20490;-69
2023/08/02 04:31:07;;;;;;;3.30;1.40;;;15.70;99.90;;;;;;5091007;28;20457;-71
2023/08/02 04:33:34;;;;;;;1.70;1.60;;;15.60;99.90;;;;;;5090571;28;20460;-71
2023/08/02 04:36:01;;;;;;;1.40;1.30;;;15.60;99.90;;;;;;5091541;28;20500;-73
2023/08/02 04:38:28;;;;;;;2.27;1.40;;;15.60;99.90;;;;;;5087373;22;20501;-69
2023/08/02 04:40:54;;;;;;;1.70;1.50;;;15.50;99.90;;;;;;5050546;28;20461;-68
2023/08/02 04:43:21;;;;;;;3.90;2.17;;;15.50;99.90;;;;;;5070289;28;20462;-69
2023/08/02 04:45:48;;;;;;;3.83;1.60;;;15.50;99.90;;;;;;5055145;28;20451;-69
2023/08/02 04:48:16;;;;;;;1.83;1.43;;;15.40;99.90;;;;;;5052501;28;21012;-68
2023/08/02 04:50:43;;;;;;;2.30;1.97;;;15.40;99.90;;;;;;5046211;28;20491;-69
2023/08/02 04:53:10;;;;;;;3.60;2.03;;;15.30;99.90;;;;;;5068252;28;21442;-69
2023/08/02 04:55:43;;;;;;;2.90;1.97;;;15.30;99.90;;;;;;5070031;28;20478;-71
2023/08/02 04:58:10;;;;;;;3.53;2.10;;;15.30;99.90;;;;;;5070013;28;20478;-71
2023/08/02 05:00:37;;;;;;;2.63;2.10;;;15.30;99.90;;;;;;5070532;28;20465;-70
2023/08/02 05:03:04;;;;;;;1.73;1.60;;;15.20;99.90;;;;;;5070221;28;20461;-70
2023/08/02 05:05:32;;;;;;;2.37;2.17;;;15.20;99.90;;;;;;5069900;28;20511;-69
2023/08/02 05:08:00;;;;;;;2.33;2.10;;;15.10;99.90;;;;;;5069338;28;20480;-67
2023/08/02 05:10:27;;;;;;;3.13;2.07;;;15.00;99.90;;;;;;5070550;28;20457;-69
2023/08/02 05:12:53;;;;;;;2.07;1.77;;;15.00;99.90;;;;;;5070267;28;20460;-67
2023/08/02 05:15:20;;;;;;;3.50;2.00;;;15.00;99.90;;;;;;5069780;28;20480;-70
2023/08/02 05:17:47;;;;;;;2.67;2.20;;;15.00;99.90;;;;;;5069700;28;20479;-69
2023/08/02 05:20:14;;;;;;;2.60;1.97;;;15.00;99.90;;;;;;5069945;28;20489;-69
2023/08/02 05:22:42;;;;;;;2.10;1.90;;;15.00;99.90;;;;;;5069816;28;20463;-69
2023/08/02 05:25:09;;;;;;;2.17;1.90;;;15.00;99.90;;;;;;5069787;28;20833;-68
2023/08/02 05:27:36;;;;;;;1.80;1.70;;;14.90;99.90;;;;;;5069426;28;20476;-69
2023/08/02 05:30:03;;;;;;;2.93;2.13;;;14.90;99.90;;;;;;5069956;28;20461;-68
2023/08/02 05:32:30;;;;;;;2.13;1.93;;;14.90;99.90;;;;;;5070063;28;20569;-71
2023/08/02 05:34:57;;;;;;;3.83;2.47;;;14.90;99.90;;;;;;5070123;28;20455;-70
2023/08/02 05:37:23;;;;;;;2.80;2.17;;;14.90;99.90;;;;;;5069334;28;20459;-71
2023/08/02 05:39:52;;;;;;;2.00;1.70;;;14.90;99.90;;;;;;5070135;28;20463;-69
2023/08/02 05:42:22;;;;;;;3.63;2.20;;;14.90;99.90;;;;;;5070024;28;20452;-71
2023/08/02 05:44:49;;;;;;;4.57;2.20;;;14.80;99.90;;;;;;5069837;28;20602;-70
2023/08/02 05:47:15;;;;;;;4.90;2.20;;;14.80;99.90;;;;;;5069391;28;20464;-72
2023/08/02 05:49:42;;;;;;;2.50;1.80;;;14.80;99.90;;;;;;5069982;28;20463;-69
2023/08/02 05:52:09;;;;;;;2.73;2.07;;;14.70;99.90;;;;;;5069848;28;20464;-69
2023/08/02 05:54:35;;;;;;;4.53;2.33;;;14.70;99.90;;;;;;5069814;28;20493;-69
2023/08/02 05:57:04;;;;;;;2.10;1.90;;;14.80;99.90;;;;;;5069298;28;20486;-69
2023/08/02 05:59:30;;;;;;;2.77;2.00;;;14.80;99.90;;;;;;5059423;28;20481;-69
2023/08/02 06:01:57;;;;;;;3.07;2.10;;;14.80;99.90;;;;;;5069889;28;20456;-73
2023/08/02 06:04:24;;;;;;;2.77;2.33;;;14.80;99.90;;;;;;5067707;28;20463;-69
2023/08/02 06:06:51;;;;;;;3.43;2.70;;;14.80;99.90;;;;;;5052011;28;20805;-68
2023/08/02 06:09:17;;;;;;;4.80;2.07;;;14.70;99.90;;;;;;5069439;28;20483;-69
2023/08/02 06:11:44;;;;;;;3.00;2.30;;;14.70;99.90;;;;;;5069308;28;21113;-70
2023/08/02 06:14:12;;;;;;;3.70;2.33;;;14.80;99.90;;;;;;5068991;28;20453;-69
2023/08/02 06:16:39;;;;;;;3.03;2.23;;;14.80;99.90;;;;;;5069260;28;20487;-66
2023/08/02 06:19:06;;;;;;;1.83;1.60;;;14.80;99.90;;;;;;5072475;28;20476;-69
2023/08/02 06:21:34;;;;;;;2.57;2.37;;;14.80;99.90;;;;;;5073468;28;20456;-69
2023/08/02 06:24:01;;;;;;;3.37;2.00;;;14.80;99.90;;;;;;5073492;28;20459;-69
2023/08/02 06:26:28;;;;;;;2.63;2.37;;;14.80;99.90;;;;;;5072833;28;20468;-69
2023/08/02 06:28:55;;;;;;;3.97;2.40;;;14.80;99.90;;;;;;5072980;28;20480;-69
2023/08/02 06:31:23;;;;;;;4.30;2.43;;;14.90;99.90;;;;;;5073131;28;20480;-69
2023/08/02 06:33:50;;;;;;;2.20;2.00;;;14.90;99.90;;;;;;5073212;28;20452;-69
2023/08/02 06:36:17;;;;;;;2.10;1.90;;;15.00;99.90;;;;;;5072764;28;20556;-69
2023/08/02 06:38:45;;;;;;;4.17;2.63;;;15.10;99.90;;;;;;5072523;28;20525;-69
2023/08/02 06:41:12;;;;;;;7.90;2.47;;;15.10;99.90;;;;;;5072961;28;20464;-70
2023/08/02 06:43:39;;;;;;;2.23;2.03;;;15.10;99.90;;;;;;5073010;28;20457;-70
2023/08/02 06:46:06;;;;;;;3.50;2.50;;;15.20;99.90;;;;;;5072993;28;20453;-71
2023/08/02 06:48:34;;;;;;;1.80;1.57;;;15.20;99.90;;;;;;5072071;28;20478;-71
2023/08/02 06:51:01;;;;;;;2.30;2.10;;;15.20;99.90;;;;;;5073086;28;20454;-71
2023/08/02 06:53:28;;;;;;;2.30;2.10;;;15.20;99.90;;;;;;5072555;28;20480;-71
2023/08/02 06:55:54;;;;;;;2.40;2.10;;;15.20;99.90;;;;;;5072701;28;20480;-71
2023/08/02 06:58:21;;;;;;;2.33;2.13;;;15.20;99.90;;;;;;5072359;28;20859;-70
2023/08/02 07:00:48;;;;;;;3.03;2.70;;;15.20;99.90;;;;;;5072607;28;20465;-69
2023/08/02 07:03:14;;;;;;;2.90;2.17;;;15.20;99.90;;;;;;5072540;28;20970;-70
2023/08/02 07:05:43;;;;;;;2.80;2.27;;;15.10;99.90;;;;;;5072505;28;20484;-70
2023/08/02 07:08:09;;;;;;;2.33;2.03;;;15.20;99.90;;;;;;5065440;28;20481;-70
2023/08/02 07:10:36;;;;;;;2.30;2.07;;;15.20;99.90;;;;;;5039845;28;20464;-69
2023/08/02 07:13:03;;;;;;;2.30;2.10;;;15.20;99.90;;;;;;5050552;28;20465;-70
2023/08/02 07:15:29;;;;;;;2.97;2.40;;;15.20;99.90;;;;;;5061514;28;20468;-70
2023/08/02 07:17:56;;;;;;;2.70;2.20;;;15.20;99.90;;;;;;5071067;28;20481;-70
2023/08/02 07:20:23;;;;;;;2.97;2.30;;;15.40;99.90;;;;;;5070804;28;20460;-70
2023/08/02 07:22:51;;;;;;;2.77;2.40;;;15.40;99.90;;;;;;5071305;28;20472;-70
2023/08/02 07:25:18;;;;;;;2.63;2.10;;;15.50;99.90;;;;;;5071455;28;20531;-69
2023/08/02 07:27:44;;;;;;;2.73;2.23;;;15.50;99.90;;;;;;5070836;28;21299;-69
2023/08/02 07:30:11;;;;;;;4.17;2.63;;;15.60;99.90;;;;;;5070700;28;20465;-69
2023/08/02 07:32:38;;;;;;;2.67;2.17;;;15.60;99.90;;;;;;5060251;28;20509;-70
2023/08/02 07:35:05;;;;;;;2.60;2.40;;;15.60;99.90;;;;;;5046312;28;20686;-70
2023/08/02 07:37:32;;;;;;;3.40;2.50;;;15.70;99.90;;;;;;5055501;28;20484;-69
2023/08/02 07:40:00;;;;;;;4.03;2.33;;;15.70;99.90;;;;;;5071018;28;20818;-68
2023/08/02 07:42:27;;;;;;;3.13;2.37;;;15.60;99.90;;;;;;5070642;28;20464;-69
2023/08/02 07:45:05;;;;;;;2.40;2.20;;;15.60;99.90;;;;;;5070518;28;20864;-69
2023/08/02 07:47:32;;;;;;;3.77;2.73;;;15.70;99.90;;;;;;5070003;28;20481;-69
2023/08/02 07:49:59;;;;;;;3.47;2.60;;;15.70;99.90;;;;;;5070772;28;20472;-69
2023/08/02 07:52:26;;;;;;;3.20;2.07;;;15.80;99.90;;;;;;5060819;28;20453;-69
2023/08/02 07:54:53;;;;;;;2.27;2.07;;;15.80;99.90;;;;;;5051485;28;20946;-68
2023/08/02 07:57:21;;;;;;;2.80;2.50;;;15.80;99.90;;;;;;5048546;28;20486;-69
2023/08/02 07:59:47;;;;;;;3.07;2.20;;;15.90;99.90;;;;;;5059495;28;20451;-68
2023/08/02 08:02:14;;;;;;;2.73;2.47;;;15.90;99.90;;;;;;5066894;28;20458;-68
2023/08/02 08:04:41;;;;;;;3.80;2.47;;;15.90;99.90;;;;;;5062578;28;20963;-70
2023/08/02 08:07:08;;;;;;;3.30;2.40;;;15.90;99.90;;;;;;5070326;28;20453;-68
2023/08/02 08:09:35;;;;;;;2.70;2.40;;;16.00;99.90;;;;;;5069626;28;20484;-68
2023/08/02 08:12:03;;;;;;;2.67;2.43;;;16.00;99.90;;;;;;5070801;28;20453;-68
2023/08/02 08:14:32;;;;;;;2.23;2.03;;;16.10;99.90;;;;;;5070564;28;20489;-68
2023/08/02 08:16:59;;;;;;;2.90;2.60;;;16.10;99.90;;;;;;5069923;28;20859;-68
2023/08/02 08:19:26;;;;;;;4.30;2.43;;;16.20;99.90;;;;;;5070103;28;20473;-67
2023/08/02 08:21:53;;;;;;;3.43;2.70;;;16.30;99.90;;;;;;5070638;28;20466;-68
2023/08/02 08:24:20;;;;;;;2.60;2.40;;;16.30;99.90;;;;;;5070185;28;20454;-68
2023/08/02 08:26:47;;;;;;;3.17;2.57;;;16.40;99.90;;;;;;5069663;28;21145;-68
2023/08/02 08:29:14;;;;;;;2.20;2.00;;;16.30;99.90;;;;;;5069977;28;20479;-68
2023/08/02 08:31:42;;;;;;;3.20;2.47;;;16.40;99.90;;;;;;5069780;28;20454;-68
2023/08/02 08:34:08;;;;;;;3.33;2.30;;;16.40;99.90;;;;;;5070278;28;20462;-69
2023/08/02 08:36:35;;;;;;;2.60;2.00;;;16.40;99.90;;;;;;5070469;28;20491;-70
2023/08/02 08:39:02;;;;;;;2.43;2.10;;;16.50;99.90;;;;;;5070747;28;20486;-71
2023/08/02 08:41:29;;;;;;;2.53;2.33;;;16.50;99.90;;;;;;5070536;28;20515;-70
2023/08/02 08:43:56;;;;;;;2.07;1.90;;;16.50;99.90;;;;;;5070910;28;20455;-71
2023/08/02 08:46:24;;;;;;;2.17;1.97;;;16.50;99.90;;;;;;5070432;28;20477;-70
2023/08/02 08:48:52;;;;;;;1.90;1.70;;;16.50;99.90;;;;;;5070348;28;20489;-68
2023/08/02 08:51:22;;;;;;;2.23;2.00;;;16.60;99.90;;;;;;5071151;28;20462;-70
2023/08/02 08:53:49;;;;;;;3.00;2.33;;;16.70;99.90;;;;;;5070911;28;20889;-72
2023/08/02 08:56:18;;;;;;;2.33;2.10;;;16.70;99.90;;;;;;5070783;28;20487;-71
2023/08/02 08:58:45;;;;;;;2.10;1.87;;;16.70;99.90;;;;;;5070204;28;20481;-69
2023/08/02 09:01:13;;;;;;;3.73;2.43;;;16.60;99.90;;;;;;5070617;28;20457;-68
2023/08/02 09:03:39;;;;;;;3.00;2.10;;;16.60;99.90;;;;;;5070406;28;20842;-69
2023/08/02 09:06:08;;;;;;;2.30;2.10;;;16.70;99.90;;;;;;5070644;28;20465;-68
2023/08/02 09:08:43;;;;;;;2.87;2.07;;;16.70;99.90;;;;;;5069918;28;20482;-68
2023/08/02 09:11:10;;;;;;;2.30;2.00;;;16.70;99.90;;;;;;5070747;28;20462;-69
2023/08/02 09:13:37;;;;;;;2.53;2.33;;;16.70;99.90;;;;;;5070613;28;20462;-71
2023/08/02 09:16:08;;;;;;;2.60;1.80;;;16.70;99.90;;;;;;5070396;28;20457;-70
2023/08/02 09:18:36;;;;;;;2.73;1.87;;;16.70;99.90;;;;;;5069805;28;20470;-69
2023/08/02 09:21:02;;;;;;;2.53;2.10;;;16.70;99.90;;;;;;5070667;28;20461;-69
2023/08/02 09:23:30;;;;;;;2.83;2.43;;;16.70;99.90;;;;;;5070075;28;20465;-68
2023/08/02 09:26:10;;;;;;;3.10;2.80;;;16.80;99.90;;;;;;5070627;28;20462;-68
2023/08/02 09:28:37;;;;;;;2.93;2.63;;;16.80;99.90;;;;;;5069976;28;20485;-68
2023/08/02 09:31:14;;;;;;;3.13;2.80;;;16.90;99.90;;;;;;5070807;28;20461;-68
2023/08/02 09:33:49;;;;;;;3.70;2.30;;;17.00;99.90;;;;;;5070272;28;20840;-72
2023/08/02 09:36:22;;;;;;;2.80;2.10;;;17.20;99.90;;;;;;5070255;28;20462;-68
2023/08/02 09:39:02;;;;;;;3.23;2.80;;;17.30;99.90;;;;;;5069708;28;20479;-68
2023/08/02 09:41:31;;;;;;;3.77;2.40;;;17.40;99.90;;;;;;5070611;28;20549;-69
2023/08/02 09:43:58;;;;;;;3.03;2.50;;;17.40;99.90;;;;;;5071087;28;20482;-69
2023/08/02 09:46:28;;;;;;;2.93;2.47;;;17.50;99.90;;;;;;5070707;28;20451;-72
2023/08/02 09:48:55;;;;;;;2.60;2.30;;;17.50;99.90;;;;;;5054505;28;20842;-68
2023/08/02 09:51:22;;;;;;;3.10;2.33;;;17.50;99.90;;;;;;5070455;28;20822;-69
2023/08/02 09:53:56;;;;;;;2.97;2.77;;;17.60;99.90;;;;;;5072807;28;20488;-69
2023/08/02 09:56:24;;;;;;;2.80;2.60;;;17.70;99.90;;;;;;5074481;28;20450;-69
2023/08/02 09:58:55;;;;;;;4.40;2.57;;;17.70;99.90;;;;;;5073835;28;20483;-70
2023/08/02 10:01:24;;;;;;;5.00;2.90;;;17.70;99.90;;;;;;5074500;28;20484;-70
2023/08/02 10:03:55;;;;;;;4.57;3.00;;;17.70;99.90;;;;;;5074276;28;20509;-69
2023/08/02 10:06:23;;;;;;;5.70;2.83;;;17.80;99.90;;;;;;5074291;28;20458;-69
2023/08/02 10:08:52;;;;;;;3.43;2.97;;;17.90;99.90;;;;;;5073536;28;20501;-69
2023/08/02 10:11:22;;;;;;;3.40;2.47;;;18.00;99.90;;;;;;5074355;28;20459;-69
2023/08/02 10:13:51;;;;;;;3.60;2.80;;;18.00;99.90;;;;;;5073663;28;20462;-69
2023/08/02 10:16:19;;;;;;;3.60;2.97;;;18.10;99.90;;;;;;5073917;28;20458;-69
2023/08/02 10:18:47;;;;;;;5.20;2.63;;;18.10;99.90;;;;;;5073417;28;20486;-69
2023/08/02 10:21:16;;;;;;;3.30;2.57;;;18.10;99.90;;;;;;5074016;28;20450;-69
2023/08/02 10:23:43;;;;;;;3.00;2.70;;;18.10;99.90;;;;;;5073727;28;20466;-69
2023/08/02 10:26:10;;;;;;;3.47;3.17;;;18.10;99.90;;;;;;5073777;28;20946;-70
2023/08/02 10:28:40;;;;;;;4.33;2.40;;;18.10;99.90;;;;;;5073106;28;20898;-69
2023/08/02 10:31:08;;;;;;;6.60;2.73;;;18.00;99.90;;;;;;5073968;28;20469;-69
2023/08/02 10:33:35;;;;;;;3.43;2.60;;;17.90;99.90;;;;;;5073578;28;20473;-69
2023/08/02 10:36:03;;;;;;;4.10;2.87;;;17.90;99.90;;;;;;5073461;28;20463;-69
2023/08/02 10:38:48;;;;;;;5.90;3.47;;;17.90;99.90;;;;;;5119100;22;20544;-89
2023/08/02 10:41:16;;;;;;;3.00;2.57;;;17.90;99.90;;;;;;5039948;28;20547;-91
2023/08/02 10:44:22;;;;;;;3.73;2.70;;;17.90;99.90;;;;;;5058819;28;20979;-91
2023/08/02 10:47:28;;;;;;;3.77;3.30;;;17.90;99.90;;;;;;5060777;28;20971;-90
2023/08/02 10:49:57;;;;;;;3.87;2.40;;;17.90;99.90;;;;;;5060371;28;21007;-91
2023/08/02 10:52:28;;;;;;;3.60;3.03;;;18.00;99.90;;;;;;5061736;28;20540;-92
2023/08/02 10:55:19;;;;;;;5.27;3.27;;;18.00;99.90;;;;;;5063311;28;20986;-91
2023/08/02 10:58:06;;;;;;;5.13;3.33;;;18.00;99.90;;;;;;4944389;29;20488;-91
2023/08/02 11:00:37;;;;;;;5.40;3.10;;;18.10;99.90;;;;;;4956975;29;20587;-91
2023/08/02 11:03:04;;;;;;;3.27;2.80;;;18.30;99.90;;;;;;5037431;28;20460;-91
2023/08/02 11:05:40;;;;;;;3.83;3.00;;;18.50;99.90;;;;;;5044386;28;20453;-91
2023/08/02 11:10:52;;;;;;;3.30;2.90;;;18.60;99.90;;;;;;5079275;22;20491;-69
2023/08/02 11:13:19;;;;;;;3.30;2.87;;;18.70;99.90;;;;;;5073233;28;20532;-71
2023/08/02 11:15:47;;;;;;;3.37;2.80;;;18.70;99.90;;;;;;5073703;28;20529;-71
2023/08/02 11:18:14;;;;;;;3.50;3.10;;;18.80;99.90;;;;;;5073806;28;20483;-72
2023/08/02 11:20:41;;;;;;;2.67;2.33;;;18.80;99.90;;;;;;5073885;28;20509;-72
2023/08/02 11:23:23;;;;;;;3.90;3.30;;;18.80;99.90;;;;;;5074872;28;20831;-71
2023/08/02 11:25:50;;;;;;;3.87;3.20;;;18.90;99.90;;;;;;5071936;28;21083;-69
2023/08/02 11:28:17;;;;;;;3.00;2.70;;;18.90;99.90;;;;;;5071610;28;20475;-69
2023/08/02 11:30:52;;;;;;;3.40;3.00;;;19.00;99.90;;;;;;5071617;28;20465;-70
2023/08/02 11:33:18;;;;;;;3.17;2.87;;;19.10;99.90;;;;;;5071161;28;20494;-69
2023/08/02 11:35:51;;;;;;;4.00;2.90;;;19.30;99.90;;;;;;5071558;28;20460;-72
2023/08/02 11:38:18;;;;;;;3.30;2.70;;;19.50;99.90;;;;;;5071699;28;21003;-71
2023/08/02 11:40:45;;;;;;;3.30;2.70;;;19.80;99.90;;;;;;5072657;28;20979;-71
2023/08/02 11:43:14;;;;;;;3.27;2.97;;;20.20;99.90;;;;;;5073480;28;20948;-72
2023/08/02 11:45:41;;;;;;;2.70;2.50;;;20.40;99.90;;;;;;5076643;28;20842;-72
2023/08/02 11:48:24;;;;;;;3.13;2.73;;;20.50;99.90;;;;;;5071058;28;20492;-69
2023/08/02 11:50:51;;;;;;;3.40;2.87;;;20.70;99.90;;;;;;5070652;28;20456;-68
2023/08/02 11:53:18;;;;;;;3.80;3.10;;;21.00;99.90;;;;;;5071286;28;20464;-73
2023/08/02 11:55:45;;;;;;;3.63;3.33;;;21.40;99.90;;;;;;5071025;28;20512;-72
2023/08/02 11:58:12;;;;;;;3.90;2.67;;;21.80;99.90;;;;;;5071252;28;20505;-74
2023/08/02 12:00:39;;;;;;;3.30;2.30;;;22.20;99.90;;;;;;5071558;28;20459;-69
2023/08/02 12:03:12;;;;;;;5.73;2.90;;;22.50;99.90;;;;;;5071116;28;20454;-71
2023/08/02 12:05:39;;;;;;;3.27;2.80;;;22.70;99.90;;;;;;5071686;28;20844;-71
2023/08/02 12:08:11;;;;;;;3.33;2.93;;;22.70;99.90;;;;;;5072022;28;20485;-71
2023/08/02 12:10:39;;;;;;;4.20;2.33;;;22.70;99.90;;;;;;5070709;28;20473;-69
2023/08/02 12:13:10;;;;;;;2.43;2.23;;;22.90;99.90;;;;;;5070755;28;20489;-72
2023/08/02 12:15:37;;;;;;;3.43;3.07;;;22.90;99.90;;;;;;5070722;28;20973;-71
2023/08/02 12:18:07;;;;;;;3.10;2.80;;;22.90;99.90;;;;;;5070782;28;20488;-72
2023/08/02 12:20:37;;;;;;;3.43;2.80;;;22.90;99.90;;;;;;5072752;28;20842;-72
2023/08/02 12:23:04;;;;;;;2.83;2.10;;;22.80;99.90;;;;;;5072076;28;20459;-72
2023/08/02 12:25:44;;;;;;;2.47;2.27;;;23.00;99.90;;;;;;5072599;28;20503;-68
2023/08/02 12:28:10;;;;;;;2.80;2.10;;;23.30;99.90;;;;;;5070758;28;20530;-69
2023/08/02 12:30:37;;;;;;;3.17;2.27;;;23.30;99.90;;;;;;5070874;28;20468;-69
2023/08/02 12:33:04;;;;;;;2.33;1.97;;;23.30;99.90;;;;;;5070378;28;20457;-69
2023/08/02 12:35:31;;;;;;;2.90;2.30;;;23.50;99.90;;;;;;5071449;28;20459;-73
2023/08/02 12:37:59;;;;;;;3.53;2.90;;;23.50;99.90;;;;;;5070569;28;20868;-72
2023/08/02 12:40:26;;;;;;;2.57;2.20;;;23.50;99.90;;;;;;5072479;28;20460;-72
2023/08/02 12:42:52;;;;;;;3.07;2.27;;;23.30;99.90;;;;;;5073023;28;20462;-70
2023/08/02 12:45:25;;;;;;;2.27;2.07;;;23.00;99.90;;;;;;5071142;28;20476;-71
2023/08/02 12:47:52;;;;;;;3.23;2.60;;;22.90;99.90;;;;;;5070144;28;20477;-71
2023/08/02 12:50:18;;;;;;;2.40;2.20;;;22.70;99.90;;;;;;5070793;28;20466;-69
2023/08/02 12:52:45;;;;;;;2.60;2.03;;;22.60;99.90;;;;;;5070808;28;20885;-69